Terminal Aerodrome Forecast
Issued by NWS

Current Version | Previous Version | Text Only | Print | Product List | Glossary Off
Versions: 1 2 3 4 5 6 7 8 9 10 11 12 13 14 15 16 17 18 19 20 21 22 23 24 25

000
FTUS41 KRNK 220520
TAFLWB
TAF
KLWB 220520Z 2206/2306 00000KT 5SM -SHRA BR OVC060
      TEMPO 2206/2210 2SM -RA OVC030
     FM221000 00000KT 3SM -RA BR SCT006 OVC015
     FM221500 00000KT 2SM -DZ BR OVC006
     FM221800 19004KT 4SM BR OVC010=

USA.gov is the U.S. government's official web portal to all federal, state and local government web resources and services.